createdAt,value
2019-05-17T00:00:12.370Z,99.99
2019-05-17T00:01:12.353Z,99.99
2019-05-17T00:02:12.330Z,99.99
2019-05-17T00:03:12.311Z,99.99
2019-05-17T00:04:12.290Z,99.99
2019-05-17T00:05:12.272Z,99.99
2019-05-17T00:06:12.253Z,99.99
2019-05-17T00:07:12.232Z,99.99
2019-05-17T00:08:12.209Z,99.99
2019-05-17T00:09:12.189Z,99.99
2019-05-17T00:10:12.166Z,99.99
2019-05-17T00:11:12.148Z,99.99
2019-05-17T00:12:12.125Z,99.99
2019-05-17T00:13:14.605Z,99.99
2019-05-17T00:14:12.089Z,99.99
2019-05-17T00:15:12.067Z,99.99
2019-05-17T00:16:12.042Z,99.99
2019-05-17T00:17:12.021Z,99.99
2019-05-17T00:18:12.007Z,99.99
2019-05-17T00:19:11.983Z,99.99
2019-05-17T00:20:11.965Z,99.99
2019-05-17T00:21:11.943Z,99.99
2019-05-17T00:22:11.921Z,99.99
2019-05-17T00:23:11.918Z,99.99
2019-05-17T00:24:11.878Z,99.99
2019-05-17T00:25:11.862Z,99.99
2019-05-17T00:26:11.841Z,99.99
2019-05-17T00:27:11.825Z,99.99
2019-05-17T00:28:11.794Z,99.99
2019-05-17T00:29:11.776Z,99.99
2019-05-17T00:30:11.759Z,99.99
2019-05-17T00:31:11.739Z,99.99
2019-05-17T00:32:11.711Z,99.99
2019-05-17T00:33:11.693Z,99.99
2019-05-17T00:34:11.678Z,99.99
2019-05-17T00:35:11.659Z,99.99
2019-05-17T00:36:11.634Z,99.99
2019-05-17T00:37:11.612Z,99.99
2019-05-17T00:38:11.596Z,99.99
2019-05-17T00:39:11.573Z,99.99
2019-05-17T00:40:11.551Z,99.99
2019-05-17T00:41:11.531Z,99.99
2019-05-17T00:42:11.511Z,99.99
2019-05-17T00:43:11.489Z,99.99
2019-05-17T00:44:11.467Z,99.99
2019-05-17T00:45:11.446Z,99.99
2019-05-17T00:46:11.428Z,99.99
2019-05-17T00:47:11.410Z,99.99
2019-05-17T00:48:11.384Z,99.99
2019-05-17T00:49:11.366Z,99.99
2019-05-17T00:50:11.347Z,99.99
2019-05-17T00:51:11.346Z,99.99
2019-05-17T00:52:11.301Z,99.99
2019-05-17T00:53:11.283Z,99.99
2019-05-17T00:54:11.262Z,99.99
2019-05-17T00:55:11.241Z,99.99
2019-05-17T00:56:11.220Z,99.99
2019-05-17T00:57:11.202Z,99.99
2019-05-17T00:58:11.180Z,99.99
2019-05-17T00:59:11.172Z,99.99
2019-05-17T01:00:11.139Z,99.99
2019-05-17T01:01:11.124Z,99.99
2019-05-17T01:02:11.099Z,99.99
2019-05-17T01:03:11.074Z,99.99
2019-05-17T01:04:11.054Z,99.99
2019-05-17T01:05:11.036Z,99.99
2019-05-17T01:06:11.020Z,99.99
2019-05-17T01:07:10.992Z,99.99
2019-05-17T01:08:10.968Z,99.99
2019-05-17T01:09:10.948Z,99.99
2019-05-17T01:10:10.932Z,99.99
2019-05-17T01:11:10.911Z,99.99
2019-05-17T01:12:10.888Z,99.99
2019-05-17T01:13:10.866Z,99.99
2019-05-17T01:14:10.846Z,99.99
2019-05-17T01:15:10.830Z,99.99
2019-05-17T01:16:10.813Z,99.99
2019-05-17T01:17:10.786Z,99.99
2019-05-17T01:18:10.760Z,99.99
2019-05-17T01:19:10.739Z,99.99
2019-05-17T01:20:10.722Z,99.99
2019-05-17T01:21:10.698Z,99.99
2019-05-17T01:22:10.678Z,99.99
2019-05-17T01:23:10.659Z,99.99
2019-05-17T01:24:10.638Z,99.99
2019-05-17T01:25:10.616Z,99.99
2019-05-17T01:26:10.597Z,99.99
2019-05-17T01:27:10.580Z,99.99
2019-05-17T01:28:10.555Z,99.99
2019-05-17T01:29:10.533Z,99.99
2019-05-17T01:30:10.515Z,99.99
2019-05-17T01:31:10.491Z,99.99
2019-05-17T01:32:10.469Z,99.99
2019-05-17T01:33:10.446Z,99.99
2019-05-17T01:34:10.422Z,99.99
2019-05-17T01:35:10.411Z,99.99
2019-05-17T01:36:10.385Z,99.99
2019-05-17T01:37:10.363Z,99.99
2019-05-17T01:38:10.340Z,99.99
2019-05-17T01:39:17.177Z,99.99
2019-05-17T01:40:10.305Z,99.99
2019-05-17T01:41:10.281Z,99.99
2019-05-17T01:42:10.262Z,99.99
2019-05-17T01:43:10.238Z,99.99
2019-05-17T01:44:10.216Z,99.99
2019-05-17T01:45:10.192Z,99.99
2019-05-17T01:46:10.172Z,99.99
2019-05-17T01:47:10.145Z,99.99
2019-05-17T01:48:10.134Z,99.99
2019-05-17T01:49:10.113Z,99.99
2019-05-17T01:50:10.090Z,99.99
2019-05-17T01:51:10.067Z,99.99
2019-05-17T01:52:10.045Z,99.99
2019-05-17T01:53:10.031Z,99.99
2019-05-17T01:54:10.004Z,99.99
2019-05-17T01:55:09.986Z,99.99
2019-05-17T01:56:09.964Z,99.99
2019-05-17T01:57:09.940Z,99.99
2019-05-17T01:58:09.922Z,99.99
2019-05-17T01:59:09.909Z,99.99
2019-05-17T02:00:09.888Z,99.99
2019-05-17T02:01:09.858Z,99.99
2019-05-17T02:02:09.839Z,99.99
2019-05-17T02:03:09.819Z,99.99
2019-05-17T02:04:09.795Z,99.99
2019-05-17T02:05:09.778Z,99.99
2019-05-17T02:06:09.758Z,99.99
2019-05-17T02:07:09.734Z,99.99
2019-05-17T02:08:09.713Z,99.99
2019-05-17T02:09:09.689Z,99.99
2019-05-17T02:10:09.696Z,99.99
2019-05-17T02:11:09.652Z,99.99
2019-05-17T02:12:09.625Z,99.99
2019-05-17T02:13:09.613Z,99.99
2019-05-17T02:14:09.602Z,99.99
2019-05-17T02:15:09.579Z,99.99
2019-05-17T02:16:09.541Z,99.99
2019-05-17T02:17:09.528Z,99.99
2019-05-17T02:18:09.504Z,99.99
2019-05-17T02:19:09.486Z,99.99
2019-05-17T02:20:09.472Z,99.99
2019-05-17T02:21:09.443Z,99.99
2019-05-17T02:22:09.421Z,99.99
2019-05-17T02:23:09.399Z,99.99
2019-05-17T02:24:09.380Z,99.99
2019-05-17T02:25:09.364Z,99.99
2019-05-17T02:26:09.338Z,99.99
2019-05-17T02:27:09.313Z,99.99
2019-05-17T02:28:09.294Z,99.99
2019-05-17T02:29:09.288Z,99.99
2019-05-17T02:30:09.255Z,99.99
2019-05-17T02:31:09.234Z,99.99
2019-05-17T02:32:12.590Z,99.99
2019-05-17T02:33:12.411Z,99.99
2019-05-17T02:34:09.178Z,99.99
2019-05-17T02:35:09.159Z,99.99
2019-05-17T02:36:09.131Z,99.99
2019-05-17T02:37:09.119Z,99.99
2019-05-17T02:38:09.089Z,99.99
2019-05-17T02:39:09.062Z,99.99
2019-05-17T02:40:09.064Z,99.99
2019-05-17T02:41:09.028Z,99.99
2019-05-17T02:42:09.005Z,99.99
2019-05-17T02:43:08.985Z,99.99
2019-05-17T02:44:08.959Z,99.99
2019-05-17T02:45:08.937Z,99.99
2019-05-17T02:46:08.926Z,99.99
2019-05-17T02:47:08.897Z,99.99
2019-05-17T02:48:08.875Z,99.99
2019-05-17T02:49:08.858Z,99.99
2019-05-17T02:50:08.833Z,99.99
2019-05-17T02:51:08.817Z,99.99
2019-05-17T02:52:08.807Z,99.99
2019-05-17T02:53:08.777Z,99.99
2019-05-17T02:54:08.750Z,99.99
2019-05-17T02:55:08.729Z,99.99
2019-05-17T02:56:08.709Z,99.99
2019-05-17T02:57:08.687Z,99.99
2019-05-17T02:58:08.675Z,99.99
2019-05-17T02:59:08.638Z,99.99
2019-05-17T03:00:08.632Z,99.99
2019-05-17T03:01:08.605Z,99.99
2019-05-17T03:02:08.583Z,99.99
2019-05-17T03:03:08.561Z,99.99
2019-05-17T03:04:08.543Z,99.99
2019-05-17T03:05:08.524Z,99.99
2019-05-17T03:06:08.546Z,99.99
2019-05-17T03:07:08.479Z,99.99
2019-05-17T03:08:08.459Z,99.99
2019-05-17T03:09:08.445Z,99.99
2019-05-17T03:10:18.364Z,99.99
2019-05-17T03:11:08.393Z,99.99
2019-05-17T03:12:08.367Z,99.99
2019-05-17T03:13:08.355Z,99.99
2019-05-17T03:14:08.338Z,99.99
2019-05-17T03:15:08.312Z,99.99
2019-05-17T03:16:08.287Z,99.99
2019-05-17T03:17:08.273Z,99.99
2019-05-17T03:18:08.249Z,99.99
2019-05-17T03:19:08.227Z,99.99
2019-05-17T03:20:08.212Z,99.99
2019-05-17T03:21:08.180Z,99.99
2019-05-17T03:22:08.235Z,99.99
2019-05-17T03:23:08.137Z,99.99
2019-05-17T03:24:08.122Z,99.99
2019-05-17T03:25:08.095Z,99.99
2019-05-17T03:26:08.080Z,99.99
2019-05-17T03:27:08.052Z,99.99
2019-05-17T03:28:08.035Z,99.99
2019-05-17T03:29:08.014Z,99.99
2019-05-17T03:30:07.987Z,99.99
2019-05-17T03:31:09.452Z,99.99
2019-05-17T03:32:09.514Z,99.99
2019-05-17T03:33:08.306Z,99.99
2019-05-17T03:34:07.907Z,99.99
2019-05-17T03:35:08.079Z,99.99
2019-05-17T03:36:07.965Z,99.99
2019-05-17T03:37:08.000Z,99.99
2019-05-17T03:38:07.823Z,99.99
2019-05-17T03:39:07.805Z,99.99
2019-05-17T03:40:23.303Z,99.99
2019-05-17T03:41:18.157Z,99.99
2019-05-17T03:42:07.754Z,99.99
2019-05-17T03:43:07.723Z,99.99
2019-05-17T03:44:07.690Z,99.99
2019-05-17T03:45:07.681Z,99.99
2019-05-17T03:46:07.653Z,99.99
2019-05-17T03:47:07.640Z,99.99
2019-05-17T03:48:07.608Z,99.99
2019-05-17T03:49:07.585Z,99.99
2019-05-17T03:50:07.572Z,99.99
2019-05-17T03:51:07.544Z,99.99
2019-05-17T03:52:07.535Z,99.99
2019-05-17T03:53:07.503Z,99.99
2019-05-17T03:54:07.486Z,99.99
2019-05-17T03:55:07.461Z,99.99
2019-05-17T03:56:07.437Z,99.99
2019-05-17T03:57:07.417Z,99.99
2019-05-17T03:58:07.393Z,99.99
2019-05-17T03:59:07.378Z,99.99
2019-05-17T04:00:07.352Z,99.99
2019-05-17T04:01:07.334Z,99.99
2019-05-17T04:02:07.313Z,99.99
2019-05-17T04:03:07.292Z,99.99
2019-05-17T04:04:07.269Z,99.99
2019-05-17T04:05:07.249Z,99.99
2019-05-17T04:06:07.229Z,99.99
2019-05-17T04:07:07.212Z,99.99
2019-05-17T04:08:07.204Z,99.99
2019-05-17T04:09:07.168Z,99.99
2019-05-17T04:10:07.144Z,99.99
2019-05-17T04:11:21.162Z,99.99
2019-05-17T04:12:07.106Z,99.99
2019-05-17T04:13:07.086Z,99.99
2019-05-17T04:14:07.058Z,99.99
2019-05-17T04:15:07.038Z,99.99
2019-05-17T04:16:09.177Z,99.99
2019-05-17T04:17:07.006Z,99.99
2019-05-17T04:18:06.981Z,99.99
2019-05-17T04:19:06.951Z,99.99
2019-05-17T04:20:06.931Z,99.99
2019-05-17T04:21:06.909Z,99.99
2019-05-17T04:22:06.891Z,99.99
2019-05-17T04:23:06.868Z,99.99
2019-05-17T04:24:06.859Z,99.99
2019-05-17T04:25:06.828Z,99.99
2019-05-17T04:26:06.803Z,99.99
2019-05-17T04:27:06.787Z,99.99
2019-05-17T04:28:06.781Z,99.99
2019-05-17T04:29:06.745Z,99.99
2019-05-17T04:30:06.725Z,99.99
2019-05-17T04:31:06.701Z,99.99
2019-05-17T04:32:06.678Z,99.99
2019-05-17T04:33:06.660Z,99.99
2019-05-17T04:34:06.641Z,99.99
2019-05-17T04:35:06.616Z,99.99
2019-05-17T04:36:06.595Z,99.99
2019-05-17T04:37:06.569Z,99.99
2019-05-17T04:38:06.554Z,99.99
2019-05-17T04:39:06.532Z,99.99
2019-05-17T04:40:06.508Z,99.99
2019-05-17T04:41:06.489Z,99.99
2019-05-17T04:42:06.469Z,99.99
2019-05-17T04:43:06.449Z,99.99
2019-05-17T04:44:06.428Z,99.99
2019-05-17T04:45:06.407Z,99.99
2019-05-17T04:46:06.392Z,99.99
2019-05-17T04:47:06.371Z,99.99
2019-05-17T04:48:06.342Z,99.99
2019-05-17T04:49:06.326Z,99.99
2019-05-17T04:50:06.314Z,99.99
2019-05-17T04:51:06.282Z,99.99
2019-05-17T04:52:06.266Z,99.99
2019-05-17T04:53:06.240Z,99.99
2019-05-17T04:54:06.221Z,99.99
2019-05-17T04:55:06.206Z,99.99
2019-05-17T04:56:06.176Z,99.99
2019-05-17T04:57:06.160Z,99.99
2019-05-17T04:58:06.136Z,99.99
2019-05-17T04:59:06.139Z,99.99
2019-05-17T05:00:06.094Z,99.99
2019-05-17T05:01:06.076Z,99.99
2019-05-17T05:02:06.050Z,99.99
2019-05-17T05:03:06.031Z,99.99
2019-05-17T05:04:06.026Z,99.99
2019-05-17T05:05:05.991Z,99.99
2019-05-17T05:06:05.976Z,99.99
2019-05-17T05:07:05.948Z,99.99
2019-05-17T05:08:05.928Z,99.99
2019-05-17T05:09:05.907Z,99.99
2019-05-17T05:10:05.883Z,99.99
2019-05-17T05:11:05.865Z,99.99
2019-05-17T05:12:06.575Z,99.99
2019-05-17T05:13:05.825Z,99.99
2019-05-17T05:14:05.809Z,99.99
2019-05-17T05:15:05.786Z,99.99
2019-05-17T05:16:05.771Z,99.99
2019-05-17T05:17:05.741Z,99.99
2019-05-17T05:18:05.724Z,99.99
2019-05-17T05:19:05.703Z,99.99
2019-05-17T05:20:05.682Z,99.99
2019-05-17T05:21:05.660Z,99.99
2019-05-17T05:22:05.636Z,99.99
2019-05-17T05:23:05.620Z,99.99
2019-05-17T05:24:05.606Z,99.99
2019-05-17T05:25:05.584Z,99.99
2019-05-17T05:26:05.557Z,99.99
2019-05-17T05:27:05.537Z,99.99
2019-05-17T05:28:05.517Z,99.99
2019-05-17T05:29:05.512Z,99.99
2019-05-17T05:30:05.476Z,99.99
2019-05-17T05:31:05.454Z,99.99
2019-05-17T05:32:05.441Z,99.99
2019-05-17T05:33:05.410Z,99.99
2019-05-17T05:34:05.394Z,99.99
2019-05-17T05:35:05.375Z,99.99
2019-05-17T05:36:05.354Z,99.99
2019-05-17T05:37:05.334Z,99.99
2019-05-17T05:38:05.311Z,99.99
2019-05-17T05:39:05.298Z,99.99
2019-05-17T05:40:05.280Z,99.99
2019-05-17T05:41:05.260Z,99.99
2019-05-17T05:42:10.212Z,99.99
2019-05-17T05:43:05.212Z,99.99
2019-05-17T05:44:05.193Z,99.99
2019-05-17T05:45:05.184Z,99.99
2019-05-17T05:46:05.155Z,99.99
2019-05-17T05:47:05.135Z,99.99
2019-05-17T05:48:05.111Z,99.99
2019-05-17T05:49:05.096Z,99.99
2019-05-17T05:50:05.078Z,99.99
2019-05-17T05:51:05.724Z,99.99
2019-05-17T05:52:05.037Z,99.99
2019-05-17T05:53:05.023Z,99.99
2019-05-17T05:54:05.000Z,99.99
2019-05-17T05:55:04.977Z,99.99
2019-05-17T05:56:04.960Z,99.99
2019-05-17T05:57:04.939Z,99.99
2019-05-17T05:58:04.917Z,99.99
2019-05-17T05:59:04.898Z,99.99
2019-05-17T06:00:04.882Z,99.99
2019-05-17T06:01:04.869Z,99.99
2019-05-17T06:02:04.838Z,99.99
2019-05-17T06:03:04.836Z,99.99
2019-05-17T06:04:04.803Z,99.99
2019-05-17T06:05:04.784Z,99.99
2019-05-17T06:06:04.764Z,99.99
2019-05-17T06:07:04.746Z,99.99
2019-05-17T06:08:04.724Z,99.99
2019-05-17T06:09:04.703Z,99.99
2019-05-17T06:10:04.688Z,99.99
2019-05-17T06:11:04.672Z,99.99
2019-05-17T06:12:04.645Z,99.99
2019-05-17T06:13:04.647Z,99.99
2019-05-17T06:14:04.611Z,99.99
2019-05-17T06:15:04.591Z,99.99
2019-05-17T06:16:04.575Z,99.99
2019-05-17T06:17:04.556Z,99.99
2019-05-17T06:18:04.536Z,99.99
2019-05-17T06:19:04.519Z,99.99
2019-05-17T06:20:04.499Z,99.99
2019-05-17T06:21:04.480Z,99.99
2019-05-17T06:22:04.463Z,99.99
2019-05-17T06:23:04.447Z,99.99
2019-05-17T06:24:04.426Z,99.99
2019-05-17T06:25:04.414Z,99.99
2019-05-17T06:26:04.701Z,99.99
2019-05-17T06:27:04.368Z,99.99
2019-05-17T06:28:04.345Z,99.99
2019-05-17T06:29:04.325Z,99.99
2019-05-17T06:30:04.305Z,99.99
2019-05-17T06:31:04.294Z,99.99
2019-05-17T06:32:04.269Z,99.99
2019-05-17T06:33:04.249Z,99.99
2019-05-17T06:34:04.239Z,99.99
2019-05-17T06:35:04.213Z,99.99
2019-05-17T06:36:04.195Z,99.99
2019-05-17T06:37:04.179Z,99.99
2019-05-17T06:38:04.161Z,99.99
2019-05-17T06:39:04.141Z,99.99
2019-05-17T06:40:04.125Z,99.99
2019-05-17T06:41:04.106Z,99.99
2019-05-17T06:42:04.085Z,99.99
2019-05-17T06:43:04.453Z,99.99
2019-05-17T06:44:04.058Z,99.99
2019-05-17T06:45:04.031Z,99.99
2019-05-17T06:46:04.016Z,99.99
2019-05-17T06:47:03.994Z,99.99
2019-05-17T06:48:03.975Z,99.99
2019-05-17T06:49:03.953Z,99.99
2019-05-17T06:50:03.937Z,99.99
2019-05-17T06:51:03.926Z,99.99
2019-05-17T06:52:03.897Z,99.99
2019-05-17T06:53:03.890Z,99.99
2019-05-17T06:54:03.863Z,99.99
2019-05-17T06:55:05.979Z,99.99
2019-05-17T06:56:03.831Z,99.99
2019-05-17T06:57:03.807Z,99.99
2019-05-17T06:58:03.793Z,99.99
2019-05-17T06:59:03.773Z,99.99
2019-05-17T07:00:11.121Z,99.99
2019-05-17T07:01:03.736Z,99.99
2019-05-17T07:02:03.719Z,99.99
2019-05-17T07:03:03.699Z,99.99
2019-05-17T07:04:03.682Z,99.99
2019-05-17T07:05:03.664Z,99.99
2019-05-17T07:06:03.650Z,99.99
2019-05-17T07:07:03.645Z,99.99
2019-05-17T07:08:03.609Z,99.99
2019-05-17T07:09:03.588Z,99.99
2019-05-17T07:10:03.580Z,99.99
2019-05-17T07:11:03.562Z,99.99
2019-05-17T07:12:03.539Z,99.99
2019-05-17T07:13:03.525Z,99.99
2019-05-17T07:14:03.501Z,99.99
2019-05-17T07:15:03.491Z,99.99
2019-05-17T07:16:03.465Z,99.99
2019-05-17T07:17:03.447Z,99.99
2019-05-17T07:18:03.432Z,99.99
2019-05-17T07:19:03.416Z,99.99
2019-05-17T07:20:03.396Z,99.99
2019-05-17T07:21:03.719Z,99.99
2019-05-17T07:22:03.364Z,99.99
2019-05-17T07:23:03.357Z,99.99
2019-05-17T07:24:03.330Z,99.99
2019-05-17T07:25:03.310Z,99.99
2019-05-17T07:26:03.297Z,99.99
2019-05-17T07:27:03.277Z,99.99
2019-05-17T07:28:03.262Z,99.99
2019-05-17T07:29:03.244Z,99.99
2019-05-17T07:30:03.227Z,99.99
2019-05-17T07:31:03.210Z,99.99
2019-05-17T07:32:03.197Z,99.20
2019-05-17T07:33:03.176Z,93.77
2019-05-17T07:34:03.161Z,87.72
2019-05-17T07:35:03.142Z,87.67
2019-05-17T07:36:03.128Z,89.83
2019-05-17T07:37:03.108Z,84.87
2019-05-17T07:38:03.097Z,84.58
2019-05-17T07:39:03.078Z,82.21
2019-05-17T07:40:05.280Z,80.91
2019-05-17T07:41:03.044Z,79.27
2019-05-17T07:42:03.029Z,78.15
2019-05-17T07:43:10.478Z,79.41
2019-05-17T07:44:02.998Z,76.51
2019-05-17T07:45:02.984Z,78.06
2019-05-17T07:46:02.966Z,76.51
2019-05-17T07:47:02.956Z,77.67
2019-05-17T07:48:02.941Z,79.31
2019-05-17T07:49:02.926Z,77.23
2019-05-17T07:50:02.914Z,75.20
2019-05-17T07:51:02.903Z,73.27
2019-05-17T07:52:02.889Z,75.24
2019-05-17T07:53:02.877Z,75.24
2019-05-17T07:54:02.866Z,73.57
2019-05-17T07:55:02.868Z,73.66
2019-05-17T07:56:02.849Z,75.40
2019-05-17T07:57:02.844Z,75.49
2019-05-17T07:58:02.824Z,74.47
2019-05-17T07:59:03.628Z,73.50
2019-05-17T08:00:02.807Z,71.28
2019-05-17T08:01:02.795Z,74.60
2019-05-17T08:02:02.790Z,70.39
2019-05-17T08:03:02.875Z,70.04
2019-05-17T08:04:02.774Z,67.94
2019-05-17T08:05:02.763Z,65.17
2019-05-17T08:06:02.769Z,66.53
2019-05-17T08:07:02.754Z,66.72
2019-05-17T08:08:02.741Z,66.63
2019-05-17T08:09:04.454Z,66.43
2019-05-17T08:10:02.733Z,65.59
2019-05-17T08:11:02.722Z,64.53
2019-05-17T08:12:05.340Z,62.14
2019-05-17T08:13:02.716Z,62.43
2019-05-17T08:14:02.704Z,63.49
2019-05-17T08:15:02.700Z,63.98
2019-05-17T08:16:02.698Z,62.88
2019-05-17T08:17:02.695Z,62.21
2019-05-17T08:18:02.693Z,61.76
2019-05-17T08:19:02.683Z,63.24
2019-05-17T08:20:02.688Z,63.17
2019-05-17T08:21:02.676Z,61.40
2019-05-17T08:22:02.672Z,60.82
2019-05-17T08:23:05.074Z,62.24
2019-05-17T08:24:02.665Z,63.62
2019-05-17T08:25:02.660Z,61.62
2019-05-17T08:26:02.663Z,60.33
2019-05-17T08:27:02.655Z,62.46
2019-05-17T08:28:02.653Z,61.98
2019-05-17T08:29:02.647Z,65.50
2019-05-17T08:30:02.652Z,63.40
2019-05-17T08:31:02.647Z,60.61
2019-05-17T08:32:02.646Z,60.68
2019-05-17T08:33:02.649Z,58.25
2019-05-17T08:34:02.635Z,59.12
2019-05-17T08:35:02.635Z,57.21
2019-05-17T08:36:02.631Z,56.62
2019-05-17T08:37:02.631Z,57.04
2019-05-17T08:38:02.629Z,56.24
2019-05-17T08:39:02.628Z,56.24
2019-05-17T08:40:02.628Z,58.76
2019-05-17T08:41:02.626Z,57.72
2019-05-17T08:42:02.620Z,55.88
2019-05-17T08:43:02.619Z,54.80
2019-05-17T08:44:02.621Z,55.88
2019-05-17T08:45:02.621Z,55.10
2019-05-17T08:46:02.933Z,55.49
2019-05-17T08:47:02.625Z,57.46
2019-05-17T08:48:02.623Z,56.03
2019-05-17T08:49:02.615Z,55.05
2019-05-17T08:50:02.609Z,55.35
2019-05-17T08:51:45.153Z,53.79
2019-05-17T08:52:45.149Z,53.67
2019-05-17T08:55:29.905Z,56.59
2019-05-17T08:56:30.691Z,55.61
2019-05-17T08:57:30.297Z,51.92
2019-05-17T08:58:29.725Z,52.69
2019-05-17T08:59:29.690Z,52.76
2019-05-17T09:00:31.448Z,54.61
2019-05-17T09:01:30.205Z,54.54
2019-05-17T09:02:29.862Z,52.76
2019-05-17T09:03:30.318Z,53.13
2019-05-17T09:04:29.748Z,55.04
2019-05-17T09:05:30.216Z,55.08
2019-05-17T09:06:29.297Z,55.08
2019-05-17T09:07:29.520Z,55.35
2019-05-17T09:08:29.876Z,57.09
2019-05-17T09:09:31.445Z,57.00
2019-05-17T09:10:29.973Z,58.87
2019-05-17T09:11:30.249Z,55.96
2019-05-17T09:12:29.993Z,55.08
2019-05-17T09:13:29.822Z,56.96
2019-05-17T09:14:29.443Z,58.67
2019-05-17T09:15:29.645Z,56.56
2019-05-17T09:16:30.707Z,53.77
2019-05-17T09:17:29.966Z,54.03
2019-05-17T09:18:30.135Z,53.52
2019-05-17T09:19:29.977Z,53.59
2019-05-17T09:21:10.973Z,56.25
2019-05-17T09:22:10.974Z,57.22
2019-05-17T09:23:10.980Z,55.08
2019-05-17T09:24:10.974Z,54.86
2019-05-17T09:25:15.768Z,57.90
2019-05-17T09:26:10.974Z,56.74
2019-05-17T09:27:10.973Z,55.28
2019-05-17T09:28:10.972Z,55.35
2019-05-17T09:29:10.978Z,57.55
2019-05-17T09:30:10.971Z,58.56
2019-05-17T09:31:10.976Z,60.85
2019-05-17T09:32:10.971Z,60.53
2019-05-17T09:33:11.434Z,63.37
2019-05-17T09:34:10.966Z,61.72
2019-05-17T09:35:11.175Z,61.27
2019-05-17T09:36:10.974Z,63.34
2019-05-17T09:37:10.970Z,62.27
2019-05-17T09:38:10.967Z,62.07
2019-05-17T09:39:10.963Z,59.94
2019-05-17T09:40:10.958Z,57.43
2019-05-17T09:41:10.954Z,58.23
2019-05-17T09:42:10.957Z,58.04
2019-05-17T09:43:10.956Z,55.71
2019-05-17T09:44:15.948Z,58.16
2019-05-17T09:45:10.950Z,58.67
2019-05-17T09:46:53.491Z,56.25
2019-05-17T09:47:53.493Z,55.31
2019-05-17T09:48:53.485Z,55.60
2019-05-17T09:49:53.485Z,55.31
2019-05-17T09:50:53.488Z,53.08
2019-05-17T09:51:53.477Z,54.27
2019-05-17T09:52:53.481Z,53.61
2019-05-17T09:53:53.480Z,52.94
2019-05-17T09:54:53.472Z,54.97
2019-05-17T09:55:53.473Z,53.32
2019-05-17T09:56:53.473Z,52.72
2019-05-17T09:57:53.473Z,52.88
2019-05-17T09:58:53.468Z,53.97
2019-05-17T09:59:55.897Z,53.59
2019-05-17T10:00:53.463Z,54.85
2019-05-17T10:01:53.461Z,54.07
2019-05-17T10:02:53.469Z,52.64
2019-05-17T10:03:53.457Z,52.57
2019-05-17T10:04:53.460Z,53.74
2019-05-17T10:05:53.463Z,52.31
2019-05-17T10:06:53.450Z,50.75
2019-05-17T10:07:53.442Z,52.01
2019-05-17T10:08:53.447Z,51.82
2019-05-17T10:09:53.445Z,51.62
2019-05-17T10:11:04.797Z,51.43
2019-05-17T10:11:53.539Z,51.40
2019-05-17T10:12:53.440Z,55.10
2019-05-17T10:13:53.432Z,52.94
2019-05-17T10:14:53.430Z,54.24
2019-05-17T10:15:53.430Z,55.67
2019-05-17T10:16:53.454Z,56.64
2019-05-17T10:17:53.426Z,55.87
2019-05-17T10:18:53.424Z,53.92
2019-05-17T10:19:53.423Z,54.44
2019-05-17T10:20:53.424Z,54.36
2019-05-17T10:21:53.430Z,51.75
2019-05-17T10:22:53.417Z,52.55
2019-05-17T10:23:53.419Z,53.06
2019-05-17T10:24:53.418Z,49.78
2019-05-17T10:25:53.412Z,49.46
2019-05-17T10:26:53.416Z,52.43
2019-05-17T10:27:53.411Z,49.73
2019-05-17T10:28:53.413Z,49.19
2019-05-17T10:29:53.408Z,46.56
2019-05-17T10:30:53.411Z,46.69
2019-05-17T10:31:53.412Z,46.59
2019-05-17T10:32:53.412Z,47.36
2019-05-17T10:33:58.909Z,48.63
2019-05-17T10:34:53.412Z,48.34
2019-05-17T10:35:53.412Z,48.61
2019-05-17T10:36:53.407Z,50.19
2019-05-17T10:37:53.408Z,52.19
2019-05-17T10:38:53.402Z,53.22
2019-05-17T10:39:53.406Z,53.61
2019-05-17T10:40:53.403Z,53.49
2019-05-17T10:41:53.420Z,53.56
2019-05-17T10:42:53.394Z,56.93
2019-05-17T10:43:53.397Z,57.97
2019-05-17T10:44:54.754Z,58.33
2019-05-17T10:45:53.399Z,57.36
2019-05-17T10:46:53.394Z,58.59
2019-05-17T10:47:53.404Z,58.27
2019-05-17T10:48:53.390Z,59.01
2019-05-17T10:49:53.386Z,60.24
2019-05-17T10:50:53.388Z,59.63
2019-05-17T10:51:53.382Z,59.60
2019-05-17T10:52:53.377Z,60.16
2019-05-17T10:53:53.374Z,61.60
2019-05-17T10:54:53.374Z,61.44
2019-05-17T10:55:53.374Z,59.99
2019-05-17T10:56:53.372Z,59.70
2019-05-17T10:57:53.365Z,59.00
2019-05-17T10:58:53.363Z,59.96
2019-05-17T10:59:53.354Z,60.44
2019-05-17T11:00:53.355Z,60.83
2019-05-17T11:01:53.353Z,60.54
2019-05-17T11:02:53.441Z,60.41
2019-05-17T11:03:53.336Z,61.93
2019-05-17T11:04:53.339Z,62.41
2019-05-17T11:05:53.330Z,62.57
2019-05-17T11:06:53.325Z,63.44
2019-05-17T11:07:53.330Z,65.17
2019-05-17T11:08:53.313Z,65.27
2019-05-17T11:09:53.313Z,64.34
2019-05-17T11:10:53.304Z,63.92
2019-05-17T11:11:53.296Z,64.69
2019-05-17T11:12:53.294Z,64.08
2019-05-17T11:13:53.282Z,63.21
2019-05-17T11:15:09.850Z,63.79
2019-05-17T11:15:53.272Z,64.37
2019-05-17T11:16:53.270Z,64.18
2019-05-17T11:17:53.258Z,65.63
2019-05-17T11:18:53.248Z,64.28
2019-05-17T11:19:53.247Z,65.43
2019-05-17T11:20:53.238Z,65.14
2019-05-17T11:21:53.255Z,66.49
2019-05-17T11:22:53.225Z,64.59
2019-05-17T11:23:53.231Z,63.47
2019-05-17T11:24:53.214Z,63.67
2019-05-17T11:25:53.199Z,64.63
2019-05-17T11:26:53.198Z,65.98
2019-05-17T11:27:53.182Z,64.63
2019-05-17T11:28:53.183Z,64.40
2019-05-17T11:29:53.170Z,65.08
2019-05-17T11:30:53.161Z,63.44
2019-05-17T11:31:53.154Z,65.59
2019-05-17T11:32:53.144Z,66.75
2019-05-17T11:33:53.137Z,64.31
2019-05-17T11:34:53.129Z,64.79
2019-05-17T11:35:53.121Z,65.75
2019-05-17T11:36:53.112Z,65.75
2019-05-17T11:37:53.101Z,65.14
2019-05-17T11:38:53.094Z,66.78
2019-05-17T11:39:53.088Z,67.36
2019-05-17T11:40:53.082Z,67.71
2019-05-17T11:41:53.064Z,69.73
2019-05-17T11:42:53.060Z,69.45
2019-05-17T11:43:53.043Z,70.18
2019-05-17T11:44:53.043Z,72.49
2019-05-17T11:45:53.035Z,71.53
2019-05-17T11:46:53.021Z,70.66
2019-05-17T11:47:53.011Z,70.86
2019-05-17T11:48:53.008Z,70.56
2019-05-17T11:49:52.991Z,70.41
2019-05-17T11:50:55.110Z,70.31
2019-05-17T11:51:52.972Z,67.62
2019-05-17T11:52:52.972Z,65.05
2019-05-17T11:53:52.956Z,63.50
2019-05-17T11:54:52.949Z,60.66
2019-05-17T11:55:52.941Z,58.30
2019-05-17T11:56:54.143Z,56.16
2019-05-17T11:57:52.924Z,55.76
2019-05-17T11:58:52.929Z,56.40
2019-05-17T11:59:52.915Z,58.60
2019-05-17T12:00:52.909Z,59.25
2019-05-17T12:01:52.897Z,60.57
2019-05-17T12:02:52.897Z,60.44
2019-05-17T12:03:52.886Z,60.51
2019-05-17T12:04:52.883Z,62.79
2019-05-17T12:05:52.874Z,63.37
2019-05-17T12:06:52.870Z,64.24
2019-05-17T12:07:52.859Z,64.43
2019-05-17T12:08:52.860Z,63.47
2019-05-17T12:09:52.857Z,64.43
2019-05-17T12:10:52.952Z,65.59
2019-05-17T12:11:52.834Z,64.15
2019-05-17T12:12:52.827Z,64.24
2019-05-17T12:13:52.820Z,64.34
2019-05-17T12:14:52.840Z,64.95
2019-05-17T12:15:52.809Z,62.40
2019-05-17T12:16:52.801Z,61.79
2019-05-17T12:17:52.796Z,60.53
2019-05-17T12:18:52.794Z,59.56
2019-05-17T12:19:52.781Z,60.82
2019-05-17T12:20:52.776Z,60.63
2019-05-17T12:21:52.766Z,60.82
2019-05-17T12:22:52.763Z,60.27
2019-05-17T12:23:52.751Z,59.91
2019-05-17T12:24:52.753Z,58.75
2019-05-17T12:25:52.738Z,59.21
2019-05-17T12:26:52.736Z,58.44
2019-05-17T12:27:52.728Z,59.56
2019-05-17T12:28:52.725Z,60.63
2019-05-17T12:29:52.717Z,60.05
2019-05-17T12:30:52.707Z,59.44
2019-05-17T12:31:52.703Z,60.41
2019-05-17T12:32:52.701Z,62.40
2019-05-17T12:33:52.693Z,62.40
2019-05-17T12:34:52.683Z,63.34
2019-05-17T12:35:52.678Z,63.15
2019-05-17T12:36:52.672Z,64.08
2019-05-17T12:37:52.673Z,63.89
2019-05-17T12:38:52.657Z,65.40
2019-05-17T12:39:52.659Z,66.08
2019-05-17T12:40:52.652Z,66.56
2019-05-17T12:41:52.646Z,66.43
2019-05-17T12:42:52.634Z,65.37
2019-05-17T12:43:52.629Z,66.04
2019-05-17T12:44:52.625Z,65.27
2019-05-17T12:46:00.930Z,65.72
2019-05-17T12:46:52.606Z,66.11
2019-05-17T12:47:52.601Z,66.43
2019-05-17T12:48:52.595Z,65.63
2019-05-17T12:49:52.590Z,66.88
2019-05-17T12:50:52.577Z,66.30
2019-05-17T12:51:52.569Z,66.36
2019-05-17T12:52:52.563Z,68.10
2019-05-17T12:53:52.557Z,68.00
2019-05-17T12:54:52.547Z,68.00
2019-05-17T12:55:52.545Z,68.93